createdAt,value
2024-04-06T00:03:53.654Z,11.8
2024-04-06T00:13:50.483Z,11.8
2024-04-06T00:23:49.702Z,11.9
2024-04-06T00:33:48.912Z,11.9
2024-04-06T00:43:48.105Z,11.8
2024-04-06T00:53:47.333Z,11.9
2024-04-06T01:03:46.527Z,11.9
2024-04-06T01:13:45.764Z,11.8
2024-04-06T01:23:44.949Z,11.8
2024-04-06T01:33:44.171Z,11.9
2024-04-06T01:43:43.396Z,11.9
2024-04-06T01:53:42.599Z,11.9
2024-04-06T02:03:41.798Z,11.8
2024-04-06T02:13:41.019Z,11.9
2024-04-06T02:23:40.209Z,11.9
2024-04-06T02:33:39.439Z,11.9
2024-04-06T02:43:38.629Z,11.9
2024-04-06T02:53:37.859Z,11.8
2024-04-06T03:04:04.911Z,11.8
2024-04-06T03:14:04.135Z,11.8
2024-04-06T03:24:03.332Z,11.9
2024-04-06T03:34:02.555Z,11.9
2024-04-06T03:44:01.756Z,11.8
2024-04-06T03:54:00.968Z,11.8
2024-04-06T04:04:00.182Z,11.8
2024-04-06T04:13:59.476Z,11.9
2024-04-06T04:23:58.719Z,13.3
2024-04-06T04:33:58.011Z,13.9
2024-04-06T04:43:57.260Z,14.1
2024-04-06T04:53:56.565Z,14.3
2024-04-06T05:03:55.786Z,13.9
2024-04-06T05:13:55.004Z,14.6
2024-04-06T05:23:54.200Z,14.3
2024-04-06T05:33:53.419Z,14
2024-04-06T05:43:52.617Z,14
2024-04-06T05:53:51.840Z,14.5
2024-04-06T06:03:51.039Z,14.6
2024-04-06T06:13:50.268Z,14.3
2024-04-06T06:23:49.465Z,14.9
2024-04-06T06:33:48.691Z,14.8
2024-04-06T06:43:47.888Z,14.7
2024-04-06T06:53:47.121Z,14
2024-04-06T07:03:46.310Z,14
2024-04-06T07:13:46.504Z,14.3
2024-04-06T07:23:45.699Z,14.8
2024-04-06T07:33:44.920Z,14.4
2024-04-06T07:43:44.152Z,14.5
2024-04-06T07:53:43.349Z,13.9
2024-04-06T08:03:42.543Z,14.6
2024-04-06T08:13:41.774Z,14.1
2024-04-06T08:23:40.971Z,14
2024-04-06T08:33:40.282Z,14.2
2024-04-06T08:43:39.475Z,14
2024-04-06T08:53:38.698Z,14.2
2024-04-06T09:04:05.077Z,14
2024-04-06T09:14:04.308Z,13.9
2024-04-06T09:24:03.499Z,13.9
2024-04-06T09:34:02.729Z,13.7
2024-04-06T09:44:01.926Z,13.8
2024-04-06T09:54:01.174Z,14.1
2024-04-06T10:04:00.340Z,13.9
2024-04-06T10:13:59.618Z,13.9
2024-04-06T10:23:58.876Z,13.9
2024-04-06T10:33:58.187Z,13.9
2024-04-06T10:43:57.431Z,14.2
2024-04-06T10:53:56.719Z,13.6
2024-04-06T11:03:55.958Z,13.9
2024-04-06T11:13:55.180Z,12
2024-04-06T11:23:54.378Z,13.9
2024-04-06T11:33:53.603Z,13.7
2024-04-06T11:43:52.799Z,12.9
2024-04-06T11:53:52.018Z,12.8
2024-04-06T12:03:51.214Z,13
2024-04-06T12:13:50.435Z,13
2024-04-06T12:23:49.644Z,12.8
2024-04-06T12:33:49.973Z,12.6
2024-04-06T12:43:48.055Z,12.9
2024-04-06T12:53:47.277Z,12.3
2024-04-06T13:03:52.778Z,12.1
2024-04-06T13:13:45.698Z,12.1
2024-04-06T13:23:44.891Z,12
2024-04-06T13:33:44.111Z,12
2024-04-06T13:43:43.315Z,11.9
2024-04-06T13:53:42.536Z,11.9
2024-04-06T14:03:41.738Z,11.9
2024-04-06T14:13:41.076Z,11.9
2024-04-06T14:23:40.143Z,11.9
2024-04-06T14:33:39.375Z,11.9
2024-04-06T14:43:38.566Z,11.9
2024-04-06T14:53:37.804Z,11.9
2024-04-06T15:04:04.248Z,11.9
2024-04-06T15:14:03.486Z,11.9
2024-04-06T15:24:02.663Z,11.9
2024-04-06T15:34:01.882Z,11.9
2024-04-06T15:44:01.078Z,11.9
2024-04-06T15:54:00.299Z,11.9
2024-04-06T16:03:59.504Z,11.8
2024-04-06T16:13:58.772Z,11.8
2024-04-06T16:23:58.046Z,11.9
2024-04-06T16:33:57.335Z,11.9
2024-04-06T16:43:56.606Z,11.9
2024-04-06T16:53:59.203Z,11.9
2024-04-06T17:03:56.557Z,11.9
2024-04-06T17:13:55.786Z,11.8
2024-04-06T17:23:54.979Z,11.8
2024-04-06T17:33:54.211Z,11.8
2024-04-06T17:43:53.402Z,11.8
2024-04-06T17:53:52.621Z,11.8
2024-04-06T18:03:51.814Z,11.9
2024-04-06T18:13:51.040Z,11.9
2024-04-06T18:23:50.464Z,11.9
2024-04-06T18:33:49.461Z,11.9
2024-04-06T18:43:48.655Z,11.9
2024-04-06T18:53:47.879Z,11.9
2024-04-06T19:03:47.078Z,11.8
2024-04-06T19:13:46.306Z,11.9
2024-04-06T19:23:45.500Z,11.8
2024-04-06T19:33:44.728Z,11.8
2024-04-06T19:43:43.925Z,11.9
2024-04-06T19:53:43.160Z,11.9
2024-04-06T20:03:42.350Z,11.9
2024-04-06T20:13:41.583Z,11.9
2024-04-06T20:23:40.780Z,11.9
2024-04-06T20:33:40.003Z,11.9
2024-04-06T20:43:39.210Z,11.9
2024-04-06T20:53:38.427Z,11.8
2024-04-06T21:04:04.415Z,11.9
2024-04-06T21:14:03.628Z,11.8
2024-04-06T21:24:02.833Z,11.8
2024-04-06T21:34:02.064Z,11.9
2024-04-06T21:44:01.264Z,11.9
2024-04-06T21:54:00.533Z,11.8
2024-04-06T22:03:59.680Z,11.9
2024-04-06T22:13:58.961Z,11.9
2024-04-06T22:23:58.229Z,11.9
2024-04-06T22:33:57.512Z,11.9
2024-04-06T22:43:56.799Z,11.8
2024-04-06T22:53:56.072Z,11.9
2024-04-06T23:03:55.306Z,11.9
2024-04-06T23:13:54.533Z,11.8
2024-04-06T23:23:53.725Z,11.9
2024-04-06T23:33:52.956Z,11.8
2024-04-06T23:43:52.148Z,11.8
2024-04-06T23:53:51.375Z,11.9
